Time;durP1;ratioP1;P1;durP2;ratioP2;P2;SDS_P1;SDS_P2;PMS_P1;PMS_P2;Temp;Humidity;BMP_temperature;BMP_pressure;BME280_temperature;BME280_humidity;BME280_pressure;Samples;Min_cycle;Max_cycle;Signal;HPM_P1;HPM_P2
2023/10/15 00:00:17;;;;;;;2.20;0.88;;;8.00;99.90;;;;;;4983149;28;20747;-64
2023/10/15 00:02:45;;;;;;;3.60;1.17;;;8.00;99.90;;;;;;4971933;28;20516;-64
2023/10/15 00:05:13;;;;;;;8.97;1.53;;;8.00;99.90;;;;;;4987913;28;20652;-64
2023/10/15 00:07:41;;;;;;;3.13;1.40;;;8.60;99.90;;;;;;4992198;28;20583;-64
2023/10/15 00:10:12;;;;;;;4.87;1.30;;;7.90;99.90;;;;;;4998426;28;20571;-64
2023/10/15 00:12:40;;;;;;;3.50;1.30;;;7.90;99.90;;;;;;4960133;28;21222;-64
2023/10/15 00:15:14;;;;;;;3.05;1.40;;;7.90;99.90;;;;;;4986294;28;20608;-64
2023/10/15 00:17:42;;;;;;;4.60;1.25;;;7.80;99.90;;;;;;4989779;28;20654;-64
2023/10/15 00:20:10;;;;;;;4.45;1.27;;;7.90;99.90;;;;;;4998023;28;20233;-64
2023/10/15 00:22:38;;;;;;;5.57;1.42;;;7.80;99.90;;;;;;4992142;28;20772;-64
2023/10/15 00:25:09;;;;;;;6.93;1.40;;;7.80;99.90;;;;;;4996895;28;20625;-64
2023/10/15 00:27:37;;;;;;;2.90;0.93;;;7.80;99.90;;;;;;4967966;28;20441;-64
2023/10/15 00:30:06;;;;;;;6.10;1.55;;;7.80;99.90;;;;;;4987810;28;20219;-64
2023/10/15 00:32:33;;;;;;;6.03;1.10;;;7.70;99.90;;;;;;4992433;28;20695;-64
2023/10/15 00:35:00;;;;;;;9.20;1.33;;;7.70;99.90;;;;;;4995306;28;20198;-64
2023/10/15 00:37:27;;;;;;;5.93;1.20;;;7.70;99.90;;;;;;4996671;28;20198;-64
2023/10/15 00:39:54;;;;;;;3.55;0.90;;;7.80;99.90;;;;;;4993141;28;20452;-64
2023/10/15 00:42:22;;;;;;;2.43;1.03;;;7.70;99.90;;;;;;4991612;28;20194;-64
2023/10/15 00:44:49;;;;;;;5.30;1.38;;;7.60;99.90;;;;;;4962023;28;20710;-64
2023/10/15 00:47:16;;;;;;;4.67;1.13;;;7.70;99.90;;;;;;4987275;28;20217;-64
2023/10/15 00:49:44;;;;;;;4.47;1.00;;;7.60;99.90;;;;;;4994910;28;20388;-64
2023/10/15 00:52:12;;;;;;;6.93;1.47;;;7.60;99.90;;;;;;4997831;28;20213;-64
2023/10/15 00:54:40;;;;;;;1.97;0.83;;;7.60;99.90;;;;;;4981799;28;20202;-64
2023/10/15 00:59:54;;;;;;;5.33;1.37;;;7.60;99.90;;;;;;4965370;28;20858;-64
2023/10/15 01:02:23;;;;;;;5.03;1.20;;;7.60;99.90;;;;;;4985834;28;20217;-64
2023/10/15 01:04:57;;;;;;;4.10;1.20;;;7.60;99.90;;;;;;4988577;28;20221;-63
2023/10/15 01:07:33;;;;;;;4.43;1.37;;;7.50;99.90;;;;;;4989164;28;20189;-63
2023/10/15 01:10:00;;;;;;;2.27;1.10;;;7.50;99.90;;;;;;4982030;28;20202;-63
2023/10/15 01:12:32;;;;;;;5.67;1.50;;;7.50;99.90;;;;;;4991014;28;20198;-63
2023/10/15 01:15:00;;;;;;;2.33;0.90;;;7.50;99.90;;;;;;4983560;28;20211;-64
2023/10/15 01:17:36;;;;;;;7.07;1.53;;;7.50;99.90;;;;;;4952216;28;20214;-64
2023/10/15 01:20:07;;;;;;;2.70;1.00;;;7.50;99.90;;;;;;4997021;28;20210;-64
2023/10/15 01:22:35;;;;;;;3.53;0.87;;;7.40;99.90;;;;;;4990672;28;20649;-64
2023/10/15 01:25:17;;;;;;;1.30;0.80;;;7.40;99.90;;;;;;4986853;28;20233;-64
2023/10/15 01:27:45;;;;;;;3.90;1.03;;;7.40;99.90;;;;;;4990996;28;20253;-64
2023/10/15 01:30:17;;;;;;;2.90;1.20;;;8.90;99.90;;;;;;4983935;28;20440;-64
2023/10/15 01:32:45;;;;;;;2.20;0.90;;;7.50;99.90;;;;;;4963123;28;20838;-64
2023/10/15 01:35:14;;;;;;;4.50;0.93;;;7.40;99.90;;;;;;4995624;28;20916;-64
2023/10/15 01:37:44;;;;;;;4.23;0.90;;;7.60;99.90;;;;;;4987218;28;20293;-64
2023/10/15 01:40:36;;;;;;;4.57;0.90;;;7.40;99.90;;;;;;4991351;28;20205;-64
2023/10/15 01:43:06;;;;;;;3.00;1.03;;;7.40;99.90;;;;;;4993105;28;20198;-64
2023/10/15 01:45:38;;;;;;;3.50;1.17;;;7.00;99.90;;;;;;4980719;28;20448;-64
2023/10/15 01:48:13;;;;;;;1.07;0.73;;;7.40;99.90;;;;;;4956039;28;20219;-64
2023/10/15 01:50:46;;;;;;;4.87;0.70;;;7.40;99.90;;;;;;4991653;28;20203;-64
2023/10/15 01:53:13;;;;;;;2.43;1.23;;;7.40;99.90;;;;;;4996392;28;20763;-64
2023/10/15 01:55:52;;;;;;;4.13;1.10;;;7.40;99.90;;;;;;4997993;28;20710;-64
2023/10/15 01:58:24;;;;;;;6.20;0.87;;;7.10;99.90;;;;;;5001201;28;20198;-64
2023/10/15 02:00:51;;;;;;;2.57;1.03;;;7.30;99.90;;;;;;4988899;28;20328;-64
2023/10/15 02:03:18;;;;;;;2.53;0.83;;;7.40;99.90;;;;;;4947992;28;20225;-64
2023/10/15 02:05:45;;;;;;;2.87;0.90;;;7.50;99.90;;;;;;4991576;28;20620;-64
2023/10/15 02:08:14;;;;;;;4.23;0.97;;;7.50;99.90;;;;;;4997612;28;20617;-64
2023/10/15 02:10:46;;;;;;;3.53;1.17;;;7.50;99.90;;;;;;4992378;28;20209;-64
2023/10/15 02:13:15;;;;;;;2.67;1.03;;;7.50;99.90;;;;;;4996396;28;20198;-64
2023/10/15 02:15:42;;;;;;;5.60;1.13;;;7.30;99.90;;;;;;4987124;28;20714;-64
2023/10/15 02:18:13;;;;;;;3.30;0.90;;;7.30;99.90;;;;;;4956985;28;20695;-64
2023/10/15 02:20:45;;;;;;;8.33;0.97;;;7.40;99.90;;;;;;4987316;28;20226;-64
2023/10/15 02:23:12;;;;;;;2.10;0.83;;;7.60;99.90;;;;;;4998681;28;20213;-64
2023/10/15 02:25:45;;;;;;;4.43;1.10;;;7.50;99.90;;;;;;4994112;28;20432;-64
2023/10/15 02:28:16;;;;;;;3.67;0.73;;;7.50;99.90;;;;;;4997572;28;20203;-64
2023/10/15 02:30:46;;;;;;;3.40;0.87;;;7.40;99.90;;;;;;4981218;28;20439;-64
2023/10/15 02:33:16;;;;;;;4.10;0.77;;;7.40;99.90;;;;;;4986868;28;20236;-65
2023/10/15 02:35:46;;;;;;;3.83;1.13;;;7.40;99.90;;;;;;4965892;28;20230;-64
2023/10/15 02:38:14;;;;;;;2.90;0.87;;;7.40;99.90;;;;;;4996168;28;20191;-64
2023/10/15 02:41:03;;;;;;;6.83;1.23;;;7.40;99.90;;;;;;4992416;28;20508;-64
2023/10/15 02:43:31;;;;;;;2.60;1.27;;;7.10;99.90;;;;;;4995753;28;20194;-64
2023/10/15 02:46:00;;;;;;;2.67;0.70;;;7.40;99.90;;;;;;4990909;28;20198;-64
2023/10/15 02:48:27;;;;;;;4.23;0.70;;;7.80;99.90;;;;;;4960438;28;20206;-65
2023/10/15 02:51:00;;;;;;;1.93;0.70;;;7.30;99.90;;;;;;4988354;28;20202;-64
2023/10/15 02:53:34;;;;;;;2.20;0.80;;;7.20;99.90;;;;;;4986784;28;20194;-64
2023/10/15 02:56:10;;;;;;;2.13;0.60;;;7.40;99.90;;;;;;4998243;28;20287;-64
2023/10/15 02:58:38;;;;;;;1.93;1.10;;;7.20;99.90;;;;;;4994617;28;20209;-64
2023/10/15 03:01:12;;;;;;;5.10;0.80;;;7.30;99.90;;;;;;4996254;28;20214;-64
2023/10/15 03:03:48;;;;;;;7.33;1.10;;;7.20;99.90;;;;;;4958970;28;20295;-64
2023/10/15 03:06:18;;;;;;;2.20;0.80;;;7.20;99.90;;;;;;4987274;28;21068;-64
2023/10/15 03:08:46;;;;;;;6.53;1.13;;;7.20;99.90;;;;;;4993102;28;20202;-64
2023/10/15 03:11:14;;;;;;;1.30;0.60;;;7.20;99.90;;;;;;4994577;28;20203;-64
2023/10/15 03:13:51;;;;;;;5.67;1.00;;;7.30;99.90;;;;;;4994339;28;20222;-64
2023/10/15 03:16:20;;;;;;;3.70;0.80;;;7.30;99.90;;;;;;4988513;28;20649;-64
2023/10/15 03:18:49;;;;;;;2.93;0.80;;;7.20;99.90;;;;;;4965117;28;20207;-65
2023/10/15 03:21:20;;;;;;;6.03;0.70;;;7.30;99.90;;;;;;4990172;28;20221;-65
2023/10/15 03:23:49;;;;;;;3.23;1.17;;;7.20;99.90;;;;;;4993420;28;20307;-64
2023/10/15 03:26:18;;;;;;;1.23;0.53;;;7.20;99.90;;;;;;4998747;28;20203;-64
2023/10/15 03:28:51;;;;;;;3.83;0.80;;;7.10;99.90;;;;;;4991234;28;20206;-64
2023/10/15 03:31:20;;;;;;;3.77;0.80;;;7.20;99.90;;;;;;4995401;28;20669;-64
2023/10/15 03:36:44;;;;;;;1.60;0.83;;;7.20;99.90;;;;;;4962678;28;20709;-64
2023/10/15 03:39:15;;;;;;;3.37;1.00;;;7.30;99.90;;;;;;4996120;28;20206;-64
2023/10/15 03:41:42;;;;;;;1.87;0.67;;;7.30;99.90;;;;;;4995629;28;20248;-64
2023/10/15 03:44:11;;;;;;;4.60;0.90;;;7.40;99.90;;;;;;4993340;28;20221;-64
2023/10/15 03:46:38;;;;;;;5.07;0.80;;;7.40;99.90;;;;;;4994717;28;20206;-64
2023/10/15 03:49:07;;;;;;;5.23;0.67;;;7.40;99.90;;;;;;4993946;28;20209;-64
2023/10/15 03:51:40;;;;;;;2.53;0.57;;;7.40;99.90;;;;;;4967284;28;20226;-64
2023/10/15 03:54:08;;;;;;;1.97;0.70;;;7.40;99.90;;;;;;4981692;28;20754;-64
2023/10/15 03:56:35;;;;;;;0.33;0.27;;;7.40;99.90;;;;;;4991314;28;20190;-64
2023/10/15 03:59:02;;;;;;;2.10;0.47;;;7.40;99.90;;;;;;4990575;28;20316;-64
2023/10/15 04:01:31;;;;;;;3.53;0.87;;;7.40;99.90;;;;;;4995421;28;20577;-64
2023/10/15 04:04:01;;;;;;;1.60;0.67;;;7.30;99.90;;;;;;4975359;28;20237;-64
2023/10/15 04:06:28;;;;;;;2.47;0.87;;;7.30;99.90;;;;;;4963067;28;20478;-64
2023/10/15 04:09:09;;;;;;;4.83;0.80;;;7.30;99.90;;;;;;4987595;28;20568;-64
2023/10/15 04:11:43;;;;;;;4.20;0.97;;;7.30;99.90;;;;;;4995636;28;20309;-64
2023/10/15 04:14:13;;;;;;;2.30;0.70;;;6.90;99.90;;;;;;4990076;28;20248;-64
2023/10/15 04:16:42;;;;;;;4.73;1.00;;;7.20;99.90;;;;;;4996708;28;20194;-64
2023/10/15 04:19:09;;;;;;;1.53;0.70;;;7.20;99.90;;;;;;4992584;28;20206;-64
2023/10/15 04:21:38;;;;;;;2.70;0.80;;;7.20;99.90;;;;;;4961685;28;20218;-64
2023/10/15 04:24:07;;;;;;;2.47;0.93;;;7.20;99.90;;;;;;4984369;28;20207;-64
2023/10/15 04:26:35;;;;;;;3.27;0.70;;;7.20;99.90;;;;;;4987821;28;20299;-64
2023/10/15 04:29:16;;;;;;;1.43;0.60;;;7.50;99.90;;;;;;4994305;28;20198;-64
2023/10/15 04:31:47;;;;;;;1.30;0.73;;;7.20;99.90;;;;;;4994293;28;20241;-64
2023/10/15 04:34:18;;;;;;;3.87;0.93;;;7.20;99.90;;;;;;4988695;28;20780;-64
2023/10/15 04:36:45;;;;;;;1.77;0.53;;;7.20;99.90;;;;;;4963686;28;20711;-64
2023/10/15 04:39:13;;;;;;;2.97;0.90;;;7.20;99.90;;;;;;4977997;28;20906;-64
2023/10/15 04:41:40;;;;;;;1.27;0.80;;;;;;;;;;4993160;28;20223;-64
2023/10/15 04:44:21;;;;;;;0.60;0.40;;;7.80;99.90;;;;;;4987237;28;20559;-64
2023/10/15 04:46:52;;;;;;;4.33;0.93;;;7.20;99.90;;;;;;4994205;28;20688;-64
2023/10/15 04:49:19;;;;;;;0.63;0.50;;;7.20;99.90;;;;;;4991013;28;20304;-64
2023/10/15 04:51:46;;;;;;;1.50;0.93;;;7.20;99.90;;;;;;4995325;28;20190;-64
2023/10/15 04:54:13;;;;;;;4.23;0.80;;;7.20;99.90;;;;;;4959805;28;20206;-64
2023/10/15 04:56:40;;;;;;;1.73;0.60;;;7.20;99.90;;;;;;4984399;28;20778;-64
2023/10/15 04:59:07;;;;;;;2.80;0.63;;;7.20;99.90;;;;;;4987489;28;20213;-64
2023/10/15 05:01:34;;;;;;;2.03;0.60;;;7.10;99.90;;;;;;4984318;28;20219;-64
2023/10/15 05:04:02;;;;;;;0.70;0.50;;;7.10;99.90;;;;;;4993816;28;20218;-64
2023/10/15 05:06:29;;;;;;;0.80;0.50;;;7.10;99.90;;;;;;4995309;28;20226;-64
2023/10/15 05:08:57;;;;;;;0.30;0.30;;;7.10;99.90;;;;;;4957929;28;20226;-64
2023/10/15 05:11:24;;;;;;;0.73;0.30;;;6.40;99.90;;;;;;4981232;28;20775;-64
2023/10/15 05:13:52;;;;;;;2.43;0.90;;;7.20;99.90;;;;;;4988642;28;20202;-64
2023/10/15 05:16:19;;;;;;;1.70;0.60;;;7.00;99.90;;;;;;4981164;28;20210;-64
2023/10/15 05:18:48;;;;;;;1.17;0.60;;;7.00;99.90;;;;;;4994859;28;20930;-64
2023/10/15 05:21:16;;;;;;;1.13;0.60;;;7.00;99.90;;;;;;4997011;28;20573;-64
2023/10/15 05:23:43;;;;;;;3.67;0.80;;;7.00;99.90;;;;;;4957833;28;20719;-65
2023/10/15 05:26:09;;;;;;;3.07;0.60;;;7.00;99.90;;;;;;4980657;28;20502;-65
2023/10/15 05:28:36;;;;;;;0.53;0.40;;;6.90;99.90;;;;;;4994818;28;20419;-65
2023/10/15 05:31:03;;;;;;;3.50;0.60;;;8.10;99.90;;;;;;4984926;28;20224;-65
2023/10/15 05:33:30;;;;;;;1.97;0.70;;;7.00;99.90;;;;;;5001291;28;20197;-65
2023/10/15 05:35:57;;;;;;;5.70;0.57;;;7.00;99.90;;;;;;4996883;28;20195;-65
2023/10/15 05:38:27;;;;;;;0.80;0.50;;;7.00;99.90;;;;;;4978973;28;20198;-65
2023/10/15 05:41:00;;;;;;;4.33;0.73;;;7.00;99.90;;;;;;4988250;28;20206;-65
2023/10/15 05:43:27;;;;;;;0.40;0.40;;;7.00;99.90;;;;;;4998295;28;20321;-65
2023/10/15 05:45:54;;;;;;;2.33;0.40;;;7.10;99.90;;;;;;4985428;28;20209;-65
2023/10/15 05:48:20;;;;;;;4.00;0.53;;;7.10;99.90;;;;;;4995796;28;20195;-64
2023/10/15 05:50:49;;;;;;;1.50;0.63;;;7.00;99.90;;;;;;4991869;28;20934;-64
2023/10/15 05:53:16;;;;;;;2.67;0.67;;;7.00;99.90;;;;;;4998182;28;20206;-65
2023/10/15 05:55:45;;;;;;;0.60;0.43;;;6.90;99.90;;;;;;4964345;28;20420;-65
2023/10/15 05:58:12;;;;;;;1.80;0.63;;;6.90;99.90;;;;;;4993243;28;20206;-64
2023/10/15 06:00:40;;;;;;;1.10;0.47;;;7.00;99.90;;;;;;4996172;28;20202;-65
2023/10/15 06:03:07;;;;;;;1.03;0.67;;;7.00;99.90;;;;;;4997151;28;20280;-65
2023/10/15 06:05:34;;;;;;;1.30;0.60;;;7.10;99.90;;;;;;4996032;28;20422;-65
2023/10/15 06:08:01;;;;;;;5.03;0.90;;;7.10;99.90;;;;;;4986622;28;20209;-65
2023/10/15 06:10:29;;;;;;;2.33;0.80;;;7.20;99.90;;;;;;4976473;28;20249;-65
2023/10/15 06:12:58;;;;;;;4.47;1.00;;;6.90;99.90;;;;;;4983552;28;20225;-65
2023/10/15 06:15:26;;;;;;;4.03;0.60;;;7.10;99.90;;;;;;4989964;28;20221;-65
2023/10/15 06:17:53;;;;;;;5.77;0.93;;;7.10;99.90;;;;;;4995984;28;20899;-65
2023/10/15 06:20:20;;;;;;;3.33;0.90;;;7.10;99.90;;;;;;5000847;28;20695;-65
2023/10/15 06:22:49;;;;;;;1.10;0.60;;;7.10;99.90;;;;;;4989886;28;21048;-65
2023/10/15 06:25:17;;;;;;;6.70;0.87;;;7.10;99.90;;;;;;4993903;28;20215;-65
2023/10/15 06:27:44;;;;;;;1.30;0.57;;;7.10;99.90;;;;;;4965665;28;20423;-65
2023/10/15 06:30:16;;;;;;;2.70;0.70;;;7.20;99.90;;;;;;4982187;28;24282;-65
2023/10/15 06:32:43;;;;;;;1.50;0.40;;;;;;;;;;4988112;28;20280;-65
2023/10/15 06:35:10;;;;;;;1.20;0.80;;;7.10;99.90;;;;;;4996328;28;20396;-65
2023/10/15 06:37:38;;;;;;;2.47;0.77;;;7.10;99.90;;;;;;4967337;28;20778;-65
2023/10/15 06:40:08;;;;;;;2.20;0.70;;;7.10;99.90;;;;;;5000765;28;20207;-65
2023/10/15 06:42:35;;;;;;;4.40;0.93;;;7.20;99.90;;;;;;4969868;28;20641;-65
2023/10/15 06:45:03;;;;;;;1.03;0.40;;;7.10;99.90;;;;;;4992762;28;20217;-65
2023/10/15 06:47:31;;;;;;;1.40;0.70;;;7.20;99.90;;;;;;5000507;28;20198;-65
2023/10/15 06:49:57;;;;;;;3.40;1.27;;;7.20;99.90;;;;;;4997464;28;20668;-65
2023/10/15 06:52:25;;;;;;;1.23;0.23;;;;;;;;;;5000654;28;20205;-65
2023/10/15 06:54:51;;;;;;;1.37;0.30;;;7.00;99.90;;;;;;5001019;28;20263;-65
2023/10/15 06:57:18;;;;;;;0.30;0.30;;;7.00;99.90;;;;;;4976296;28;20238;-65
2023/10/15 06:59:45;;;;;;;2.07;0.53;;;10.20;99.90;;;;;;4982240;28;20629;-65
2023/10/15 07:02:13;;;;;;;0.70;0.70;;;7.00;99.90;;;;;;4990865;28;22313;-65
2023/10/15 07:04:41;;;;;;;2.43;1.97;;;7.00;99.90;;;;;;4978250;28;20584;-64
2023/10/15 07:07:08;;;;;;;4.23;2.30;;;7.00;99.90;;;;;;4992459;28;20209;-65
2023/10/15 07:09:37;;;;;;;3.77;1.40;;;7.00;99.90;;;;;;4994132;28;20214;-65
2023/10/15 07:12:05;;;;;;;1.90;0.93;;;7.10;99.90;;;;;;4990095;28;20225;-65
2023/10/15 07:14:32;;;;;;;2.47;1.20;;;;;;;;;;4950939;28;21077;-65
2023/10/15 07:16:59;;;;;;;5.33;2.60;;;7.10;99.90;;;;;;4996360;28;20202;-65
2023/10/15 07:19:26;;;;;;;6.00;2.73;;;7.10;99.90;;;;;;5000332;28;20198;-65
2023/10/15 07:21:55;;;;;;;4.90;2.33;;;7.20;99.90;;;;;;5003367;28;20224;-65
2023/10/15 07:24:22;;;;;;;5.33;2.33;;;7.10;99.90;;;;;;4999401;28;20625;-65
2023/10/15 07:26:49;;;;;;;2.40;1.40;;;7.10;99.90;;;;;;5000322;28;20225;-65
2023/10/15 07:29:16;;;;;;;3.10;1.50;;;7.10;99.90;;;;;;4970641;28;20210;-64
2023/10/15 07:31:43;;;;;;;2.40;0.70;;;7.20;99.90;;;;;;4996066;28;20209;-65
2023/10/15 07:34:10;;;;;;;0.50;0.50;;;7.10;99.90;;;;;;4994142;28;20206;-65
2023/10/15 07:36:38;;;;;;;0.63;0.50;;;7.20;99.90;;;;;;5005532;28;20264;-65
2023/10/15 07:39:06;;;;;;;0.53;0.43;;;7.10;99.90;;;;;;4976363;28;20226;-65
2023/10/15 07:41:33;;;;;;;2.03;0.70;;;7.10;99.90;;;;;;4996100;28;20378;-65
2023/10/15 07:44:01;;;;;;;1.63;0.43;;;;;;;;;;4972047;28;20226;-66
2023/10/15 07:46:28;;;;;;;1.80;0.87;;;7.20;99.90;;;;;;4995770;28;20206;-65
2023/10/15 07:48:56;;;;;;;2.37;0.70;;;7.20;99.90;;;;;;4986376;28;20204;-65
2023/10/15 07:51:22;;;;;;;1.80;0.43;;;7.20;99.90;;;;;;4993717;28;20812;-65
2023/10/15 07:53:49;;;;;;;1.37;0.57;;;8.50;99.90;;;;;;4983114;28;21085;-66
2023/10/15 07:56:17;;;;;;;1.20;0.63;;;8.10;99.90;;;;;;4997888;28;20249;-66
2023/10/15 07:58:44;;;;;;;2.40;0.70;;;7.20;99.90;;;;;;4983467;28;20711;-66
2023/10/15 08:01:11;;;;;;;1.93;0.33;;;7.20;99.90;;;;;;4953146;28;21167;-66
2023/10/15 08:03:38;;;;;;;1.30;0.50;;;;;;;;;;4953032;28;20230;-66
2023/10/15 08:06:07;;;;;;;2.50;0.70;;;7.30;99.90;;;;;;4984744;28;21824;-65
2023/10/15 08:08:34;;;;;;;0.90;0.60;;;7.20;99.90;;;;;;4977971;28;20352;-66
2023/10/15 08:11:01;;;;;;;3.20;0.77;;;7.20;99.90;;;;;;4981366;28;20217;-66
2023/10/15 08:13:29;;;;;;;1.37;0.80;;;7.10;99.90;;;;;;4992619;28;20226;-66
2023/10/15 08:15:56;;;;;;;2.60;0.60;;;7.10;99.90;;;;;;4963785;28;20740;-65
2023/10/15 08:18:24;;;;;;;2.40;0.67;;;7.10;99.90;;;;;;4997618;28;20349;-66
2023/10/15 08:20:51;;;;;;;1.47;0.63;;;7.20;99.90;;;;;;4981753;28;20711;-66
2023/10/15 08:23:17;;;;;;;1.70;0.50;;;7.20;99.90;;;;;;4984830;28;20233;-66
2023/10/15 08:25:45;;;;;;;2.77;0.50;;;;;;;;;;4968059;28;20878;-65
2023/10/15 08:28:12;;;;;;;0.93;0.77;;;7.20;99.90;;;;;;4979804;28;22698;-65
2023/10/15 08:30:41;;;;;;;1.67;0.67;;;7.10;99.90;;;;;;4957917;28;20245;-66
2023/10/15 08:33:10;;;;;;;1.47;0.67;;;7.30;99.90;;;;;;4986313;28;20222;-66
2023/10/15 08:35:37;;;;;;;1.90;0.50;;;7.30;99.90;;;;;;4977642;28;20340;-66
2023/10/15 08:38:07;;;;;;;1.93;0.57;;;7.30;99.90;;;;;;4992169;28;20549;-66
2023/10/15 08:40:40;;;;;;;3.50;0.73;;;7.30;99.90;;;;;;4978878;28;20251;-66
2023/10/15 08:43:13;;;;;;;1.77;0.67;;;7.40;99.90;;;;;;4982716;28;20240;-66
2023/10/15 08:45:42;;;;;;;0.67;0.57;;;6.90;99.90;;;;;;4959080;28;22474;-66
2023/10/15 08:48:12;;;;;;;4.50;0.60;;;7.10;99.90;;;;;;4991028;28;20659;-66
2023/10/15 08:50:40;;;;;;;0.97;0.63;;;7.70;99.90;;;;;;4972924;28;20533;-66
2023/10/15 08:53:08;;;;;;;0.73;0.53;;;7.50;99.90;;;;;;4992987;28;20712;-65
2023/10/15 08:55:36;;;;;;;1.17;0.63;;;7.50;99.90;;;;;;4984117;28;20230;-66
2023/10/15 08:58:06;;;;;;;0.63;0.50;;;7.50;99.90;;;;;;4991369;28;20220;-65
2023/10/15 09:00:36;;;;;;;0.83;0.53;;;7.50;99.90;;;;;;4987468;28;20769;-66
2023/10/15 09:03:05;;;;;;;3.17;0.50;;;7.80;99.90;;;;;;4956944;28;20969;-66
2023/10/15 09:05:34;;;;;;;2.07;0.60;;;7.80;99.90;;;;;;4993708;28;20226;-66
2023/10/15 09:08:06;;;;;;;0.57;0.30;;;7.80;99.90;;;;;;4984168;28;20248;-65
2023/10/15 09:10:35;;;;;;;0.80;0.67;;;7.80;99.90;;;;;;4984551;28;20202;-65
2023/10/15 09:13:02;;;;;;;78.47;5.43;;;8.20;99.90;;;;;;4993120;28;20222;-65
2023/10/15 09:15:30;;;;;;;32.60;3.47;;;8.40;99.90;;;;;;4996497;28;20203;-66
2023/10/15 09:17:57;;;;;;;2.27;0.70;;;8.30;99.90;;;;;;4966752;28;20248;-65
2023/10/15 09:20:32;;;;;;;2.53;0.70;;;8.40;99.90;;;;;;4991417;28;20224;-66
2023/10/15 09:23:01;;;;;;;4.33;0.97;;;8.30;99.90;;;;;;4985532;28;20299;-66
2023/10/15 09:25:28;;;;;;;1.33;0.63;;;8.60;99.90;;;;;;4986768;28;20210;-66
2023/10/15 09:27:56;;;;;;;0.63;0.63;;;8.30;99.90;;;;;;4994268;28;21128;-65
2023/10/15 09:30:23;;;;;;;2.17;1.07;;;;;;;;;;4992135;28;20218;-65
2023/10/15 09:32:51;;;;;;;0.83;0.67;;;8.40;99.90;;;;;;4964618;28;21386;-65
2023/10/15 09:35:18;;;;;;;1.67;0.80;;;8.30;99.90;;;;;;4993262;28;20794;-65
2023/10/15 09:37:47;;;;;;;1.17;1.00;;;8.30;99.90;;;;;;4992473;28;20205;-65
2023/10/15 09:40:19;;;;;;;3.57;0.67;;;8.20;99.90;;;;;;4988110;28;20263;-66
2023/10/15 09:42:48;;;;;;;1.23;0.70;;;8.10;99.90;;;;;;4987232;28;20731;-65
2023/10/15 09:45:18;;;;;;;4.03;1.07;;;8.10;99.90;;;;;;4998420;28;21026;-66
2023/10/15 09:47:49;;;;;;;3.03;0.93;;;8.20;99.90;;;;;;4990501;28;20562;-66
2023/10/15 09:50:19;;;;;;;3.50;0.80;;;8.10;99.90;;;;;;4968965;28;20317;-65
2023/10/15 09:52:55;;;;;;;10.13;1.20;;;8.00;99.90;;;;;;4998836;28;20202;-65
2023/10/15 09:55:27;;;;;;;1.33;0.40;;;7.70;99.90;;;;;;4983442;28;20206;-65
2023/10/15 09:57:55;;;;;;;2.37;0.63;;;8.50;99.90;;;;;;4982665;28;20223;-65
2023/10/15 10:00:32;;;;;;;3.40;0.70;;;8.60;99.90;;;;;;4990037;28;20344;-65
2023/10/15 10:03:26;;;;;;;1.30;0.60;;;8.70;99.90;;;;;;4983895;28;20221;-65
2023/10/15 10:06:09;;;;;;;1.93;0.63;;;8.80;99.90;;;;;;4955565;28;20943;-65
2023/10/15 10:08:56;;;;;;;2.20;0.63;;;8.80;99.90;;;;;;5000747;28;20194;-66
2023/10/15 10:11:38;;;;;;;4.37;0.63;;;8.80;99.90;;;;;;4984081;28;20538;-65
2023/10/15 10:14:32;;;;;;;2.20;0.70;;;8.70;99.90;;;;;;4986603;28;20191;-65
2023/10/15 10:17:00;;;;;;;6.03;0.87;;;8.80;99.90;;;;;;4996679;28;20202;-65
2023/10/15 10:19:28;;;;;;;2.13;0.50;;;8.90;99.90;;;;;;4999327;28;20206;-65
2023/10/15 10:21:55;;;;;;;2.10;0.63;;;8.80;99.90;;;;;;4971071;28;20245;-65
2023/10/15 10:24:24;;;;;;;1.23;0.60;;;9.10;99.90;;;;;;4993463;28;20755;-65
2023/10/15 10:26:53;;;;;;;1.53;0.67;;;8.70;99.90;;;;;;4990459;28;20961;-65
2023/10/15 10:29:21;;;;;;;1.20;0.80;;;8.80;99.90;;;;;;4987299;28;20684;-65
2023/10/15 10:31:49;;;;;;;0.40;0.40;;;8.80;99.90;;;;;;5000162;28;20231;-65
2023/10/15 10:34:29;;;;;;;0.80;0.43;;;8.80;99.90;;;;;;4985880;28;20423;-65
2023/10/15 10:36:56;;;;;;;1.97;0.60;;;8.80;99.90;;;;;;4966022;28;20871;-65
2023/10/15 10:39:26;;;;;;;2.33;0.67;;;8.80;99.90;;;;;;4995597;28;20217;-65
2023/10/15 10:41:58;;;;;;;2.17;0.80;;;8.90;99.90;;;;;;4997473;28;20222;-65
2023/10/15 10:44:40;;;;;;;0.83;0.40;;;8.90;99.90;;;;;;4978723;28;20230;-65
2023/10/15 10:47:19;;;;;;;0.43;0.30;;;9.60;99.90;;;;;;4991721;28;20214;-65
2023/10/15 10:49:55;;;;;;;2.37;1.00;;;9.00;99.90;;;;;;4995211;28;20703;-65
2023/10/15 10:52:29;;;;;;;0.90;0.50;;;9.00;99.90;;;;;;4954158;28;20209;-65
2023/10/15 10:55:31;;;;;;;2.13;0.50;;;9.10;99.90;;;;;;4996231;28;20222;-65
2023/10/15 10:58:00;;;;;;;1.37;0.47;;;9.20;99.90;;;;;;4981901;28;20553;-65
2023/10/15 11:00:30;;;;;;;4.17;0.60;;;9.30;99.90;;;;;;4992464;28;20390;-65
2023/10/15 11:02:58;;;;;;;1.45;0.65;;;9.40;99.90;;;;;;4985640;28;20229;-65
2023/10/15 11:05:26;;;;;;;2.38;0.52;;;9.10;99.90;;;;;;4996612;28;20446;-65
2023/10/15 11:07:52;;;;;;;4.05;1.08;;;9.30;99.90;;;;;;4967590;28;20252;-65
2023/10/15 11:10:21;;;;;;;2.35;0.65;;;9.90;99.90;;;;;;4993749;28;20198;-66
2023/10/15 11:12:49;;;;;;;2.20;0.88;;;9.50;99.90;;;;;;4994637;28;20736;-65
2023/10/15 11:15:16;;;;;;;0.68;0.60;;;9.50;99.90;;;;;;4978623;28;20927;-65
2023/10/15 11:17:54;;;;;;;1.50;0.50;;;8.50;99.90;;;;;;4998907;28;20248;-65
2023/10/15 11:20:21;;;;;;;4.30;1.00;;;9.40;99.90;;;;;;4989100;28;20217;-65
2023/10/15 11:22:51;;;;;;;3.15;0.93;;;9.40;99.90;;;;;;4957558;28;20240;-66
2023/10/15 11:25:19;;;;;;;2.47;0.75;;;9.20;99.90;;;;;;4991355;28;20242;-65
2023/10/15 11:27:48;;;;;;;1.13;0.70;;;9.00;99.90;;;;;;4997044;28;20199;-65
2023/10/15 11:30:16;;;;;;;1.20;0.50;;;9.60;99.90;;;;;;4982884;28;20494;-65
2023/10/15 11:32:44;;;;;;;0.40;0.40;;;8.90;99.90;;;;;;4994651;28;20199;-65
2023/10/15 11:35:15;;;;;;;0.82;0.47;;;9.00;99.90;;;;;;4993334;28;20250;-65
2023/10/15 11:37:42;;;;;;;3.30;0.77;;;9.10;99.90;;;;;;4997336;28;20307;-65
2023/10/15 11:40:12;;;;;;;2.67;0.60;;;9.10;99.90;;;;;;4967275;28;20271;-65
2023/10/15 11:42:50;;;;;;;1.58;0.77;;;9.20;99.90;;;;;;4996754;28;20572;-65
2023/10/15 11:45:25;;;;;;;2.58;0.73;;;9.20;99.90;;;;;;4987487;28;20622;-65
2023/10/15 11:47:54;;;;;;;1.23;0.30;;;9.20;99.90;;;;;;4993433;28;20539;-65
2023/10/15 11:50:22;;;;;;;12.75;1.23;;;9.10;99.90;;;;;;4994930;28;20422;-65
2023/10/15 11:52:50;;;;;;;10.15;1.00;;;9.20;99.90;;;;;;4992374;28;20668;-65
2023/10/15 11:55:21;;;;;;;1.48;0.52;;;9.10;99.90;;;;;;4967668;28;20661;-65
2023/10/15 11:57:50;;;;;;;3.60;0.60;;;7.80;99.90;;;;;;4995513;28;20191;-65
2023/10/15 12:00:31;;;;;;;3.88;1.13;;;9.30;99.90;;;;;;4987824;28;20202;-64
2023/10/15 12:02:59;;;;;;;2.22;0.85;;;9.40;99.90;;;;;;4984511;28;20240;-65
2023/10/15 12:05:27;;;;;;;4.07;0.88;;;9.40;99.90;;;;;;4995847;28;20245;-65
2023/10/15 12:07:53;;;;;;;8.07;1.00;;;9.40;99.90;;;;;;4996324;28;20194;-65
2023/10/15 12:10:21;;;;;;;3.17;1.05;;;9.40;99.90;;;;;;4968365;28;20250;-65
2023/10/15 12:12:50;;;;;;;0.95;0.73;;;9.50;99.90;;;;;;4985163;28;20203;-65
2023/10/15 12:15:18;;;;;;;1.60;0.80;;;9.50;99.90;;;;;;4990033;28;20229;-65
2023/10/15 12:17:45;;;;;;;2.00;0.60;;;9.40;99.90;;;;;;4977640;28;20570;-65
2023/10/15 12:20:13;;;;;;;2.97;0.77;;;9.40;99.90;;;;;;4993278;28;20241;-65
2023/10/15 12:22:40;;;;;;;1.17;0.52;;;9.50;99.90;;;;;;4995423;28;20297;-65
2023/10/15 12:25:07;;;;;;;3.33;0.88;;;9.40;99.90;;;;;;4966710;28;20222;-65
2023/10/15 12:27:34;;;;;;;3.47;0.50;;;9.40;99.90;;;;;;4983464;28;20585;-65
2023/10/15 12:30:04;;;;;;;0.73;0.57;;;9.50;99.90;;;;;;4992366;28;20826;-65
2023/10/15 12:32:31;;;;;;;4.03;0.80;;;9.50;99.90;;;;;;4976441;28;20206;-65
2023/10/15 12:34:58;;;;;;;2.63;0.70;;;9.50;99.90;;;;;;4986650;28;20453;-65
2023/10/15 12:37:29;;;;;;;2.83;0.60;;;9.60;99.90;;;;;;4991557;28;20331;-65
2023/10/15 12:39:57;;;;;;;0.98;0.73;;;9.60;99.90;;;;;;4964535;28;20873;-65
2023/10/15 12:42:24;;;;;;;2.10;0.82;;;9.60;99.90;;;;;;4992653;28;20688;-65
2023/10/15 12:44:50;;;;;;;4.68;0.60;;;9.60;99.90;;;;;;4991479;28;20226;-65
2023/10/15 12:47:18;;;;;;;0.95;0.52;;;9.60;99.90;;;;;;4993569;28;20210;-65
2023/10/15 12:49:45;;;;;;;2.13;0.80;;;9.60;99.90;;;;;;4982307;28;20202;-65
2023/10/15 12:52:12;;;;;;;2.58;0.93;;;9.80;99.90;;;;;;4993827;28;20521;-65
2023/10/15 12:54:40;;;;;;;1.27;0.73;;;10.20;99.90;;;;;;4974970;28;20222;-65
2023/10/15 12:57:06;;;;;;;1.85;0.60;;;9.90;99.90;;;;;;4982856;28;20229;-65
2023/10/15 12:59:34;;;;;;;2.30;0.82;;;10.00;99.90;;;;;;4989596;28;20194;-65
2023/10/15 13:02:01;;;;;;;1.00;0.88;;;10.10;99.90;;;;;;4989223;28;20307;-65
2023/10/15 13:04:29;;;;;;;3.42;0.68;;;10.00;99.90;;;;;;4978610;28;20240;-65
2023/10/15 13:06:56;;;;;;;3.20;0.57;;;9.70;99.90;;;;;;4990195;28;20875;-65
2023/10/15 13:09:25;;;;;;;2.72;0.60;;;9.60;99.90;;;;;;4960302;28;20232;-65
2023/10/15 13:11:53;;;;;;;2.60;1.27;;;7.50;99.90;;;;;;4956542;28;20502;-65
2023/10/15 13:14:20;;;;;;;0.88;0.73;;;9.60;99.90;;;;;;4969122;28;20884;-65
2023/10/15 13:16:50;;;;;;;4.88;0.82;;;9.60;99.90;;;;;;4977146;28;20232;-65